CheckWX is a tool to help pilots better visualize weather data.  It is not intended as a substitute for an official pre-flight weather briefing.

11:58:58 UTC

KAJR METAR
Habersham County Airport
Cornelia, Georgia, USA
Current

24 mins ago

KAJR 261135Z AUTO 01006KT 10SM CLR 01/M03 A3000 RMK AO2 T00051032
Observed
Jan-26 @ 11:35 UTC
Wind
  • 010° at 6 KTS
Visibility
10 SM
Flight Rules
VFR
Cloud Levels
  • Clear skies
Temperature
C / 34°F
Dewpoint
-3°C / 27°F
Humidity
75%
Altimeter
30" Hg
Pressure
1015.92 hPa
Previous

44 mins ago

KAJR 261115Z AUTO 36005KT 10SM CLR 00/M03 A3001 RMK AO2 T00011031
Observed
Jan-26 @ 11:15 UTC
Wind
  • 360° at 5 KTS
Visibility
10 SM
Flight Rules
VFR
Cloud Levels
  • Clear skies
Temperature
C / 32°F
Dewpoint
-3°C / 27°F
Humidity
80%
Altimeter
30.01" Hg
Pressure
1016.22 hPa
Previous

1 hour ago

KAJR 261055Z AUTO 35007KT 10SM CLR 00/M03 A3000 RMK AO2 T00001027
Observed
Jan-26 @ 10:55 UTC
Wind
  • 350° at 7 KTS
Visibility
10 SM
Flight Rules
VFR
Cloud Levels
  • Clear skies
Temperature
C / 32°F
Dewpoint
-3°C / 27°F
Humidity
80%
Altimeter
30" Hg
Pressure
1015.92 hPa